createdAt,value
2019-02-14T00:01:19.619Z,62.32
2019-02-14T00:04:21.536Z,62.36
2019-02-14T00:07:23.498Z,62.52
2019-02-14T00:10:25.461Z,62.42
2019-02-14T00:13:27.388Z,62.21
2019-02-14T00:16:29.259Z,62.10
2019-02-14T00:19:31.262Z,62.02
2019-02-14T00:22:33.194Z,62.02
2019-02-14T00:25:35.078Z,61.93
2019-02-14T00:28:37.301Z,61.96
2019-02-14T00:31:39.213Z,61.90
2019-02-14T00:34:41.088Z,61.81
2019-02-14T00:37:42.989Z,61.67
2019-02-14T00:40:44.912Z,61.76
2019-02-14T00:43:46.847Z,61.56
2019-02-14T00:46:48.789Z,61.50
2019-02-14T00:49:50.709Z,61.50
2019-02-14T00:52:52.686Z,61.47
2019-02-14T00:55:54.614Z,61.53
2019-02-14T00:58:56.587Z,61.51
2019-02-14T01:01:59.861Z,61.40
2019-02-14T01:05:01.791Z,61.33
2019-02-14T01:08:03.908Z,61.45
2019-02-14T01:11:05.792Z,61.51
2019-02-14T01:14:07.746Z,61.44
2019-02-14T01:17:09.606Z,61.54
2019-02-14T01:20:11.711Z,61.60
2019-02-14T01:23:13.613Z,61.71
2019-02-14T01:26:16.159Z,61.94
2019-02-14T01:29:18.203Z,61.92
2019-02-14T01:32:20.295Z,61.84
2019-02-14T01:35:22.180Z,61.71
2019-02-14T01:38:24.137Z,61.54
2019-02-14T01:41:26.102Z,61.56
2019-02-14T01:44:28.056Z,61.75
2019-02-14T01:47:29.925Z,62.06
2019-02-14T01:50:31.871Z,61.93
2019-02-14T01:53:33.818Z,61.85
2019-02-14T01:56:35.725Z,61.69
2019-02-14T01:59:37.740Z,61.45
2019-02-14T02:02:39.627Z,61.50
2019-02-14T02:05:41.496Z,61.61
2019-02-14T02:08:43.404Z,61.41
2019-02-14T02:11:45.311Z,61.30
2019-02-14T02:14:47.281Z,61.38
2019-02-14T02:17:49.149Z,61.50
2019-02-14T02:20:51.054Z,61.48
2019-02-14T02:23:52.982Z,61.36
2019-02-14T02:26:56.874Z,61.52
2019-02-14T02:29:58.934Z,61.48
2019-02-14T02:33:00.855Z,61.59
2019-02-14T02:36:02.786Z,61.72
2019-02-14T02:39:06.643Z,62.03
2019-02-14T02:42:08.565Z,62.10
2019-02-14T02:45:11.418Z,62.19
2019-02-14T02:48:13.364Z,62.24
2019-02-14T02:51:15.218Z,62.31
2019-02-14T02:54:17.080Z,62.44
2019-02-14T02:57:20.185Z,62.49
2019-02-14T03:00:22.386Z,62.55
2019-02-14T03:03:24.288Z,62.70
2019-02-14T03:06:26.248Z,62.92
2019-02-14T03:09:28.123Z,62.88
2019-02-14T03:12:30.067Z,62.85
2019-02-14T03:15:32.033Z,62.90
2019-02-14T03:18:33.905Z,62.94
2019-02-14T03:21:35.892Z,63.04
2019-02-14T03:24:37.760Z,63.13
2019-02-14T03:27:40.326Z,63.16
2019-02-14T03:30:42.371Z,63.43
2019-02-14T03:33:44.310Z,63.37
2019-02-14T03:36:46.164Z,63.55
2019-02-14T03:39:48.047Z,63.33
2019-02-14T03:42:51.725Z,63.30
2019-02-14T03:45:53.618Z,63.27
2019-02-14T03:48:55.504Z,63.34
2019-02-14T03:51:57.351Z,63.46
2019-02-14T03:54:59.421Z,63.49
2019-02-14T03:58:01.320Z,63.48
2019-02-14T04:01:03.301Z,63.56
2019-02-14T04:04:05.177Z,63.44
2019-02-14T04:07:07.261Z,63.41
2019-02-14T04:10:13.102Z,63.27
2019-02-14T04:13:14.998Z,63.10
2019-02-14T04:16:16.968Z,63.18
2019-02-14T04:19:18.874Z,63.15
2019-02-14T04:22:20.856Z,63.23
2019-02-14T04:25:22.745Z,63.12
2019-02-14T04:28:24.705Z,63.08
2019-02-14T04:31:26.729Z,63.13
2019-02-14T04:34:28.626Z,63.18
2019-02-14T04:37:30.536Z,63.12
2019-02-14T04:40:33.801Z,63.18
2019-02-14T04:43:35.940Z,63.17
2019-02-14T04:46:37.941Z,63.14
2019-02-14T04:49:39.875Z,63.08
2019-02-14T04:52:42.302Z,63.08
2019-02-14T04:55:44.233Z,62.92
2019-02-14T04:58:46.214Z,62.87
2019-02-14T05:01:48.174Z,62.76
2019-02-14T05:04:50.140Z,62.87
2019-02-14T05:07:52.038Z,62.89
2019-02-14T05:10:53.967Z,62.75
2019-02-14T05:13:55.911Z,62.78
2019-02-14T05:16:57.826Z,62.78
2019-02-14T05:19:59.733Z,62.97
2019-02-14T05:23:01.657Z,62.91
2019-02-14T05:26:03.551Z,62.74
2019-02-14T05:29:05.459Z,62.78
2019-02-14T05:32:07.508Z,62.91
2019-02-14T05:35:09.501Z,62.80
2019-02-14T05:38:11.411Z,62.74
2019-02-14T05:41:13.335Z,62.86
2019-02-14T05:44:15.273Z,62.98
2019-02-14T05:47:17.184Z,62.94
2019-02-14T05:50:19.058Z,62.98
2019-02-14T05:53:21.412Z,62.94
2019-02-14T05:56:23.756Z,62.99
2019-02-14T05:59:25.682Z,62.99
2019-02-14T06:02:27.737Z,62.97
2019-02-14T06:05:29.664Z,62.83
2019-02-14T06:08:33.177Z,62.67
2019-02-14T06:11:35.246Z,62.64
2019-02-14T06:14:37.255Z,62.60
2019-02-14T06:17:39.163Z,62.61
2019-02-14T06:20:41.086Z,62.65
2019-02-14T06:23:43.009Z,62.61
2019-02-14T06:26:44.945Z,62.55
2019-02-14T06:29:46.840Z,62.58
2019-02-14T06:32:48.940Z,62.64
2019-02-14T06:35:50.879Z,62.65
2019-02-14T06:38:52.794Z,62.79
2019-02-14T06:41:54.728Z,62.96
2019-02-14T06:44:56.668Z,62.89
2019-02-14T06:47:58.695Z,62.98
2019-02-14T06:51:00.553Z,62.87
2019-02-14T06:54:02.474Z,62.90
2019-02-14T06:57:05.393Z,62.85
2019-02-14T07:00:11.041Z,62.91
2019-02-14T07:03:13.024Z,62.85
2019-02-14T07:06:14.953Z,62.86
2019-02-14T07:09:16.913Z,62.90
2019-02-14T07:12:18.917Z,62.79
2019-02-14T07:15:20.783Z,62.74
2019-02-14T07:18:22.709Z,62.68
2019-02-14T07:21:24.684Z,62.65
2019-02-14T07:24:26.636Z,62.61
2019-02-14T07:27:28.537Z,62.73
2019-02-14T07:30:30.471Z,62.80
2019-02-14T07:33:32.619Z,62.89
2019-02-14T07:36:34.491Z,63.00
2019-02-14T07:39:37.387Z,63.07
2019-02-14T07:42:39.297Z,63.14
2019-02-14T07:45:41.385Z,63.06
2019-02-14T07:48:43.385Z,63.08
2019-02-14T07:51:45.429Z,63.10
2019-02-14T07:54:47.399Z,62.98
2019-02-14T07:57:49.348Z,62.90
2019-02-14T08:00:51.225Z,62.97
2019-02-14T08:03:53.235Z,62.96
2019-02-14T08:06:55.186Z,62.94
2019-02-14T08:09:57.172Z,62.83
2019-02-14T08:12:59.145Z,62.68
2019-02-14T08:16:01.106Z,62.44
2019-02-14T08:19:02.978Z,62.28
2019-02-14T08:22:04.942Z,62.09
2019-02-14T08:25:09.133Z,62.01
2019-02-14T08:28:11.067Z,61.87
2019-02-14T08:31:12.987Z,61.82
2019-02-14T08:34:15.127Z,61.77
2019-02-14T08:37:18.266Z,61.69
2019-02-14T08:40:25.087Z,61.56
2019-02-14T08:43:26.951Z,61.46
2019-02-14T08:46:28.898Z,61.47
2019-02-14T08:49:30.777Z,61.29
2019-02-14T08:52:32.690Z,61.16
2019-02-14T08:55:34.618Z,60.97
2019-02-14T08:58:36.554Z,60.85
2019-02-14T09:01:38.588Z,60.80
2019-02-14T09:04:40.564Z,60.57
2019-02-14T09:07:42.502Z,60.38
2019-02-14T09:10:44.441Z,60.26
2019-02-14T09:13:46.395Z,60.42
2019-02-14T09:16:48.315Z,60.49
2019-02-14T09:19:50.263Z,60.39
2019-02-14T09:22:52.698Z,60.46
2019-02-14T09:25:54.680Z,60.41
2019-02-14T09:28:56.610Z,60.32
2019-02-14T09:31:58.520Z,60.26
2019-02-14T09:35:00.559Z,60.23
2019-02-14T09:38:03.678Z,60.29
2019-02-14T09:41:05.959Z,60.09
2019-02-14T09:44:07.958Z,59.98
2019-02-14T09:47:09.844Z,59.99
2019-02-14T09:50:13.280Z,59.97
2019-02-14T09:53:15.177Z,59.95
2019-02-14T09:56:17.110Z,59.88
2019-02-14T09:59:19.000Z,59.78
2019-02-14T10:02:20.979Z,59.84
2019-02-14T10:05:22.992Z,59.67
2019-02-14T10:08:24.988Z,59.65
2019-02-14T10:11:26.992Z,59.67
2019-02-14T10:14:28.973Z,59.53
2019-02-14T10:17:30.878Z,59.19
2019-02-14T10:20:32.861Z,59.17
2019-02-14T10:23:34.797Z,59.26
2019-02-14T10:26:36.693Z,59.26
2019-02-14T10:29:38.708Z,59.28
2019-02-14T10:32:40.645Z,59.32
2019-02-14T10:35:42.885Z,59.37
2019-02-14T10:38:44.855Z,59.29
2019-02-14T10:41:46.749Z,59.08
2019-02-14T10:44:48.691Z,58.99
2019-02-14T10:47:50.555Z,58.81
2019-02-14T10:50:52.554Z,58.81
2019-02-14T10:53:54.552Z,58.78
2019-02-14T10:56:56.501Z,58.67
2019-02-14T10:59:58.601Z,58.81
2019-02-14T11:03:00.452Z,58.66
2019-02-14T11:06:02.430Z,58.50
2019-02-14T11:09:05.057Z,58.28
2019-02-14T11:12:06.940Z,58.22
2019-02-14T11:15:14.997Z,58.25
2019-02-14T11:18:16.951Z,57.99
2019-02-14T11:21:19.015Z,58.22
2019-02-14T11:24:20.919Z,58.15
2019-02-14T11:27:22.908Z,58.00
2019-02-14T11:30:24.816Z,57.64
2019-02-14T11:33:26.788Z,57.48
2019-02-14T11:36:28.819Z,57.53
2019-02-14T11:39:30.939Z,57.64
2019-02-14T11:42:32.967Z,57.66
2019-02-14T11:45:34.905Z,57.52
2019-02-14T11:48:36.824Z,57.52
2019-02-14T11:51:38.761Z,57.48
2019-02-14T11:54:40.619Z,57.48
2019-02-14T11:57:42.582Z,57.44
2019-02-14T12:00:44.462Z,57.41
2019-02-14T12:03:46.950Z,57.43
2019-02-14T12:06:49.030Z,57.34
2019-02-14T12:09:51.109Z,57.42
2019-02-14T12:12:53.238Z,57.32
2019-02-14T12:15:55.244Z,57.32
2019-02-14T12:18:57.160Z,57.32
2019-02-14T12:21:59.208Z,57.48
2019-02-14T12:25:01.116Z,57.61
2019-02-14T12:28:03.083Z,57.82
2019-02-14T12:31:05.049Z,58.11
2019-02-14T12:34:06.945Z,58.43
2019-02-14T12:37:09.133Z,58.69
2019-02-14T12:40:12.416Z,58.65
2019-02-14T12:43:14.506Z,58.76
2019-02-14T12:46:16.455Z,58.87
2019-02-14T12:49:18.407Z,58.96
2019-02-14T12:52:20.786Z,59.13
2019-02-14T12:55:22.795Z,59.21
2019-02-14T12:58:24.744Z,59.43
2019-02-14T13:01:26.723Z,59.88
2019-02-14T13:04:28.619Z,59.93
2019-02-14T13:07:30.597Z,59.77
2019-02-14T13:10:32.538Z,59.69
2019-02-14T13:13:34.641Z,59.60
2019-02-14T13:16:36.632Z,59.58
2019-02-14T13:19:38.630Z,59.49
2019-02-14T13:22:40.556Z,59.35
2019-02-14T13:25:42.716Z,59.38
2019-02-14T13:28:44.607Z,59.17
2019-02-14T13:31:46.602Z,59.13
2019-02-14T13:34:48.517Z,59.13
2019-02-14T13:37:51.870Z,59.06
2019-02-14T13:40:54.680Z,58.90
2019-02-14T13:43:57.037Z,58.70
2019-02-14T13:46:58.968Z,58.49
2019-02-14T13:50:00.941Z,58.29
2019-02-14T13:53:02.872Z,58.07
2019-02-14T13:56:04.846Z,57.88
2019-02-14T13:59:06.785Z,57.95
2019-02-14T14:02:08.702Z,57.90
2019-02-14T14:05:10.670Z,57.69
2019-02-14T14:08:13.903Z,57.63
2019-02-14T14:11:15.799Z,57.38
2019-02-14T14:14:17.744Z,57.22
2019-02-14T14:17:19.645Z,57.20
2019-02-14T14:20:21.545Z,57.19
2019-02-14T14:23:23.490Z,57.19
2019-02-14T14:26:25.462Z,57.20
2019-02-14T14:29:27.436Z,57.24
2019-02-14T14:32:29.848Z,57.24
2019-02-14T14:35:31.913Z,57.25
2019-02-14T14:38:34.211Z,57.19
2019-02-14T14:41:36.288Z,57.22
2019-02-14T14:44:40.016Z,57.29
2019-02-14T14:47:42.167Z,57.25
2019-02-14T14:50:44.153Z,57.36
2019-02-14T14:53:46.121Z,57.48
2019-02-14T14:56:49.474Z,57.48
2019-02-14T14:59:51.439Z,57.50
2019-02-14T15:02:53.361Z,57.63
2019-02-14T15:05:57.117Z,57.71
2019-02-14T15:09:00.079Z,57.69
2019-02-14T15:12:02.511Z,57.75
2019-02-14T15:15:06.023Z,57.72
2019-02-14T15:18:08.476Z,57.80
2019-02-14T15:21:10.559Z,57.84
2019-02-14T15:24:12.676Z,57.86
2019-02-14T15:27:15.034Z,57.98
2019-02-14T15:30:20.201Z,58.00
2019-02-14T15:33:22.222Z,58.00
2019-02-14T15:36:26.531Z,58.08
2019-02-14T15:39:28.415Z,58.06
2019-02-14T15:42:30.721Z,58.03
2019-02-14T15:45:32.914Z,58.13
2019-02-14T15:48:34.921Z,58.26
2019-02-14T15:51:37.122Z,58.40
2019-02-14T15:54:40.886Z,58.41
2019-02-14T15:57:44.768Z,58.48
2019-02-14T16:00:46.806Z,58.34
2019-02-14T16:03:48.946Z,58.46
2019-02-14T16:06:52.694Z,58.50
2019-02-14T16:10:06.626Z,58.50
2019-02-14T16:13:09.831Z,58.60
2019-02-14T16:16:12.366Z,58.80
2019-02-14T16:19:16.138Z,58.80
2019-02-14T16:22:19.829Z,58.84
2019-02-14T16:25:21.751Z,58.92
2019-02-14T16:28:25.599Z,59.05
2019-02-14T16:31:27.740Z,59.03
2019-02-14T16:34:29.702Z,58.96
2019-02-14T16:37:34.372Z,59.04
2019-02-14T16:40:39.675Z,59.06
2019-02-14T16:43:42.533Z,59.06
2019-02-14T16:46:44.443Z,59.04
2019-02-14T16:49:46.476Z,58.90
2019-02-14T16:52:49.893Z,58.94
2019-02-14T16:56:01.689Z,58.88
2019-02-14T16:58:57.122Z,58.79
2019-02-14T17:01:59.148Z,58.78
2019-02-14T17:05:01.084Z,58.76
2019-02-14T17:08:06.089Z,58.79
2019-02-14T17:11:08.223Z,58.89
2019-02-14T17:14:10.244Z,58.98
2019-02-14T17:17:12.592Z,59.10
2019-02-14T17:20:14.520Z,59.14
2019-02-14T17:23:16.440Z,59.09
2019-02-14T17:26:19.506Z,59.01
2019-02-14T17:29:22.102Z,59.01
2019-02-14T17:32:24.503Z,59.02
2019-02-14T17:35:28.511Z,58.98
2019-02-14T17:38:30.474Z,58.86
2019-02-14T17:41:38.498Z,58.86
2019-02-14T17:44:40.749Z,58.87
2019-02-14T17:47:44.204Z,58.98
2019-02-14T17:50:46.698Z,59.08
2019-02-14T17:53:48.661Z,59.09
2019-02-14T17:56:51.046Z,59.00
2019-02-14T17:59:52.983Z,58.93
2019-02-14T18:02:58.278Z,58.71
2019-02-14T18:06:00.173Z,58.42
2019-02-14T18:09:02.867Z,58.29
2019-02-14T18:12:08.907Z,58.08
2019-02-14T18:15:13.959Z,57.93
2019-02-14T18:18:17.401Z,57.89
2019-02-14T18:21:20.670Z,57.93
2019-02-14T18:24:24.393Z,57.90
2019-02-14T18:27:26.406Z,57.97
2019-02-14T18:30:32.641Z,58.00
2019-02-14T18:33:34.627Z,57.91
2019-02-14T18:36:38.380Z,57.76
2019-02-14T18:39:40.429Z,57.64
2019-02-14T18:42:46.373Z,57.58
2019-02-14T18:45:48.550Z,57.43
2019-02-14T18:48:50.706Z,57.38
2019-02-14T18:51:52.690Z,57.44
2019-02-14T18:54:56.746Z,57.40
2019-02-14T18:57:58.727Z,57.49
2019-02-14T19:01:00.649Z,57.76
2019-02-14T19:04:05.515Z,57.71
2019-02-14T19:07:08.246Z,57.67
2019-02-14T19:10:15.889Z,57.56
2019-02-14T19:13:19.078Z,57.48
2019-02-14T19:16:22.418Z,57.34
2019-02-14T19:19:24.394Z,57.34
2019-02-14T19:22:26.266Z,57.27
2019-02-14T19:25:29.713Z,57.50
2019-02-14T19:28:31.741Z,57.74
2019-02-14T19:31:35.044Z,57.90
2019-02-14T19:34:36.928Z,57.98
2019-02-14T19:37:41.650Z,57.99
2019-02-14T19:40:45.325Z,57.99
2019-02-14T19:43:49.155Z,58.01
2019-02-14T19:46:53.020Z,58.12
2019-02-14T19:49:55.082Z,58.14
2019-02-14T19:53:00.475Z,58.12
2019-02-14T19:56:02.427Z,58.15
2019-02-14T19:59:05.780Z,58.05
2019-02-14T20:02:10.426Z,57.96
2019-02-14T20:05:13.455Z,57.97
2019-02-14T20:08:15.335Z,57.93
2019-02-14T20:11:19.813Z,57.93
2019-02-14T20:14:24.158Z,57.90
2019-02-14T20:17:26.944Z,57.88
2019-02-14T20:20:30.135Z,57.81
2019-02-14T20:23:33.954Z,57.80
2019-02-14T20:26:38.887Z,57.77
2019-02-14T20:29:42.746Z,57.78
2019-02-14T20:32:44.974Z,57.76
2019-02-14T20:35:46.929Z,57.84
2019-02-14T20:38:50.263Z,57.84
2019-02-14T20:41:52.521Z,57.80
2019-02-14T20:44:56.959Z,57.78
2019-02-14T20:47:58.941Z,57.76
2019-02-14T20:51:03.001Z,57.87
2019-02-14T20:54:05.522Z,57.98
2019-02-14T20:57:07.562Z,58.09
2019-02-14T21:00:29.640Z,58.23
2019-02-14T21:03:31.882Z,58.26
2019-02-14T21:06:33.815Z,58.31
2019-02-14T21:09:38.237Z,58.25
2019-02-14T21:12:46.920Z,58.21
2019-02-14T21:15:52.957Z,58.30
2019-02-14T21:18:56.009Z,58.31
2019-02-14T21:22:01.686Z,58.35
2019-02-14T21:25:05.372Z,58.23
2019-02-14T21:28:07.315Z,58.27
2019-02-14T21:31:09.334Z,58.23
2019-02-14T21:34:11.280Z,58.35
2019-02-14T21:37:18.201Z,58.32
2019-02-14T21:40:22.145Z,58.45
2019-02-14T21:43:27.722Z,58.58
2019-02-14T21:46:29.846Z,58.56
2019-02-14T21:49:31.794Z,58.57
2019-02-14T21:52:33.755Z,58.78
2019-02-14T21:55:35.713Z,58.75
2019-02-14T21:58:37.652Z,58.81
2019-02-14T22:01:39.609Z,58.85
2019-02-14T22:04:41.649Z,58.82
2019-02-14T22:07:43.530Z,58.82
2019-02-14T22:10:46.522Z,58.79
2019-02-14T22:13:48.412Z,58.89
2019-02-14T22:16:50.657Z,59.12
2019-02-14T22:19:52.564Z,59.32
2019-02-14T22:22:54.568Z,59.41
2019-02-14T22:25:56.708Z,59.40
2019-02-14T22:28:58.662Z,59.42
2019-02-14T22:32:00.591Z,59.39
2019-02-14T22:35:02.500Z,59.26
2019-02-14T22:38:04.404Z,59.18
2019-02-14T22:41:06.309Z,59.28
2019-02-14T22:44:08.259Z,59.21
2019-02-14T22:47:10.424Z,59.19
2019-02-14T22:50:12.871Z,59.16
2019-02-14T22:53:14.887Z,59.16
2019-02-14T22:56:16.819Z,59.29
2019-02-14T22:59:18.768Z,59.28
2019-02-14T23:02:20.627Z,59.26
2019-02-14T23:05:22.545Z,59.21
2019-02-14T23:08:24.458Z,59.31
2019-02-14T23:11:26.379Z,59.43
2019-02-14T23:14:28.298Z,59.66
2019-02-14T23:17:30.340Z,59.71
2019-02-14T23:20:32.207Z,59.62
2019-02-14T23:23:34.238Z,59.59
2019-02-14T23:26:36.728Z,59.60
2019-02-14T23:29:38.653Z,59.52
2019-02-14T23:32:40.585Z,59.44
2019-02-14T23:35:42.560Z,59.41
2019-02-14T23:38:44.432Z,59.46
2019-02-14T23:41:46.375Z,59.53
2019-02-14T23:44:48.287Z,59.67
2019-02-14T23:47:50.428Z,59.79
2019-02-14T23:50:52.316Z,59.74
2019-02-14T23:53:54.271Z,59.81
2019-02-14T23:56:56.148Z,59.84
2019-02-14T23:59:58.071Z,59.83
